Time;durP1;ratioP1;P1;durP2;ratioP2;P2;SDS_P1;SDS_P2;PMS_P1;PMS_P2;Temp;Humidity;BMP_temperature;BMP_pressure;BME280_temperature;BME280_humidity;BME280_pressure;Samples;Min_cycle;Max_cycle;Signal;HPM_P1;HPM_P2
2023/02/13 00:02:13;;;;;;;4.82;2.40;;;;;;;-5.08;77.17;146076.44;5062076;28;20321;-65
2023/02/13 00:04:38;;;;;;;6.25;2.70;;;;;;;-5.19;78.11;146049.84;5063155;28;20048;-65
2023/02/13 00:07:04;;;;;;;6.03;2.75;;;;;;;-5.20;77.53;146047.34;5063817;28;20021;-65
2023/02/13 00:09:30;;;;;;;7.15;3.20;;;;;;;-5.18;79.44;146052.38;5064057;28;20092;-64
2023/02/13 00:11:55;;;;;;;7.25;2.58;;;;;;;-5.15;78.69;146058.72;5062887;28;20033;-64
2023/02/13 00:14:21;;;;;;;7.00;3.28;;;;;;;-5.16;79.22;146056.19;5063006;28;20096;-64
2023/02/13 00:16:46;;;;;;;6.88;2.95;;;;;;;-5.18;78.42;146052.38;5058822;28;20035;-64
2023/02/13 00:19:12;;;;;;;7.63;3.08;;;;;;;-5.09;78.47;146075.19;5064110;28;20028;-64
2023/02/13 00:21:37;;;;;;;7.38;3.10;;;;;;;-5.08;79.19;146077.69;5063382;28;20079;-64
2023/02/13 00:24:03;;;;;;;7.15;2.63;;;;;;;-5.04;78.60;146086.56;5062710;28;20257;-64
2023/02/13 00:26:29;;;;;;;6.03;2.60;;;;;;;-4.99;78.82;146097.94;5062234;28;20049;-64
2023/02/13 00:28:55;;;;;;;7.50;2.80;;;;;;;-5.04;78.60;146087.81;5062889;28;20051;-66
2023/02/13 00:31:21;;;;;;;6.32;2.80;;;;;;;-5.09;78.34;146075.19;5062560;28;20317;-65
2023/02/13 00:33:47;;;;;;;5.97;2.78;;;;;;;-4.91;78.13;146119.47;5062984;28;20044;-65
2023/02/13 00:36:16;;;;;;;4.28;2.70;;;;;;;-4.88;79.62;146125.81;5063009;28;20032;-66
2023/02/13 00:38:42;;;;;;;4.20;2.63;;;;;;;-4.86;77.46;146132.13;5063505;28;20025;-65
2023/02/13 00:41:08;;;;;;;4.75;2.65;;;;;;;-4.90;79.14;146120.75;5063634;28;20117;-66
2023/02/13 00:43:34;;;;;;;5.25;3.03;;;;;;;-4.74;78.36;146160.00;5062007;28;20067;-65
2023/02/13 00:46:00;;;;;;;4.55;2.63;;;;;;;-4.62;78.35;146189.09;5061709;28;20040;-65
2023/02/13 00:48:28;;;;;;;5.35;2.88;;;;;;;-4.60;77.82;146194.13;5043016;28;20071;-66
2023/02/13 00:50:54;;;;;;;6.28;2.90;;;;;;;-4.62;77.39;146189.09;5054335;28;20037;-66
2023/02/13 00:53:20;;;;;;;6.60;3.30;;;;;;;-4.58;78.12;146199.22;5054663;28;20074;-66
2023/02/13 00:55:46;;;;;;;5.85;2.80;;;;;;;-4.52;78.93;146214.41;5060434;28;20485;-66
2023/02/13 00:58:12;;;;;;;5.15;3.28;;;;;;;-4.60;77.80;146195.44;5045434;28;20037;-66
2023/02/13 01:00:38;;;;;;;7.13;3.20;;;;;;;-4.72;78.18;146166.34;5062180;28;20044;-65
2023/02/13 01:03:05;;;;;;;6.25;3.67;;;;;;;-4.62;77.78;146189.09;5060414;28;20037;-66
2023/02/13 01:05:31;;;;;;;8.68;3.45;;;;;;;-4.56;77.58;146205.56;5055124;28;20322;-67
2023/02/13 01:07:56;;;;;;;9.25;3.50;;;;;;;-4.60;78.50;146194.13;5050009;28;20186;-64
2023/02/13 01:10:23;;;;;;;6.75;3.20;;;;;;;-4.64;78.31;146185.31;5045807;28;20033;-65
2023/02/13 01:12:49;;;;;;;7.10;3.10;;;;;;;-4.51;78.34;146218.19;5062615;28;20035;-64
2023/02/13 01:15:16;;;;;;;7.30;3.40;;;;;;;-4.55;78.01;146208.06;5063111;28;20025;-64
2023/02/13 01:17:42;;;;;;;7.30;3.65;;;;;;;-4.51;77.88;146218.19;5062130;28;20041;-66
2023/02/13 01:20:10;;;;;;;4.78;3.00;;;;;;;-4.54;77.78;146210.63;5062953;28;20048;-66
2023/02/13 01:22:36;;;;;;;5.90;3.20;;;;;;;-4.42;77.44;146238.47;5061418;28;20086;-65
2023/02/13 01:25:02;;;;;;;8.20;3.17;;;;;;;-4.48;78.46;146223.28;5062817;28;20036;-64
2023/02/13 01:27:28;;;;;;;4.60;2.67;;;;;;;-4.36;78.79;146253.66;5062479;28;20021;-65
2023/02/13 01:29:54;;;;;;;3.75;2.42;;;;;;;-4.47;78.44;146227.09;5061573;28;20062;-65
2023/02/13 01:32:20;;;;;;;4.63;2.40;;;;;;;-4.43;77.58;146237.22;5062363;28;20063;-65
2023/02/13 01:34:46;;;;;;;5.28;3.00;;;;;;;-4.34;77.38;146258.75;5056507;28;20021;-65
2023/02/13 01:37:13;;;;;;;5.70;2.42;;;;;;;-4.35;77.18;146257.50;5049508;28;20032;-66
2023/02/13 01:39:38;;;;;;;5.32;2.42;;;;;;;-4.37;77.58;146252.41;5062570;28;20025;-66
2023/02/13 01:42:05;;;;;;;5.70;2.40;;;;;;;-4.50;77.63;146219.50;5060938;28;20367;-66
2023/02/13 01:44:54;;;;;;;3.45;1.92;;;;;;;-4.51;77.79;146216.94;5062549;28;20053;-66
2023/02/13 01:47:39;;;;;;;5.05;2.05;;;;;;;-4.43;77.48;146237.22;5057865;28;20062;-66
2023/02/13 01:50:09;;;;;;;2.80;1.77;;;;;;;-4.52;77.79;146214.41;5062305;28;20055;-65
2023/02/13 01:52:40;;;;;;;3.88;2.40;;;;;;;-4.35;78.03;146257.50;5055651;28;20036;-65
2023/02/13 01:55:08;;;;;;;5.38;1.90;;;;;;;-4.22;77.73;146289.16;5062361;28;20044;-65
2023/02/13 01:57:35;;;;;;;6.07;2.85;;;;;;;-4.17;78.07;146301.78;5044615;28;20031;-65
2023/02/13 02:00:12;;;;;;;4.07;2.20;;;;;;;-4.27;76.76;146276.47;5058558;28;20028;-65
2023/02/13 02:02:42;;;;;;;2.80;1.80;;;;;;;-4.11;77.39;146315.72;5057397;28;20025;-65
2023/02/13 02:05:09;;;;;;;3.47;2.20;;;;;;;-4.07;76.27;146324.63;5062192;28;20025;-65
2023/02/13 02:07:38;;;;;;;4.25;2.00;;;;;;;-4.06;76.78;146328.41;5061436;28;20021;-65
2023/02/13 02:10:15;;;;;;;5.88;2.30;;;;;;;-4.25;77.08;146280.28;5061932;28;20029;-65
2023/02/13 02:12:57;;;;;;;5.53;2.50;;;;;;;-4.27;77.71;146276.47;5061352;28;20233;-65
2023/02/13 02:15:23;;;;;;;3.90;2.35;;;;;;;-4.29;77.81;146270.13;5062177;28;20033;-66
2023/02/13 02:17:49;;;;;;;3.10;2.10;;;;;;;-4.13;78.29;146310.69;5057255;28;20052;-66
2023/02/13 02:20:58;;;;;;;6.90;2.83;;;;;;;-4.28;76.73;146272.69;5062121;28;20051;-63
2023/02/13 02:23:53;;;;;;;4.20;2.50;;;;;;;-4.16;77.55;146303.09;5059028;28;20048;-65
2023/02/13 02:26:40;;;;;;;4.65;2.38;;;;;;;-4.17;78.19;146301.78;5054554;28;20180;-65
2023/02/13 02:29:23;;;;;;;7.85;2.28;;;;;;;-4.04;77.78;146333.47;5050187;28;20028;-65
2023/02/13 02:32:13;;;;;;;4.07;2.30;;;;;;;-4.08;77.89;146323.31;5057553;28;20228;-64
2023/02/13 02:34:47;;;;;;;3.53;2.35;;;;;;;-4.09;78.35;146320.81;5061887;28;20029;-65
2023/02/13 02:37:19;;;;;;;4.40;2.35;;;;;;;-4.11;78.67;146315.72;5061371;28;20210;-65
2023/02/13 02:40:02;;;;;;;3.80;2.45;;;;;;;-4.01;77.49;146339.81;5061874;28;20041;-65
2023/02/13 02:42:28;;;;;;;6.28;2.90;;;;;;;-3.97;77.88;146348.69;5061317;28;20095;-64
2023/02/13 02:45:12;;;;;;;4.43;2.58;;;;;;;-4.11;77.79;146315.72;5061711;28;20041;-64
2023/02/13 02:50:41;;;;;;;7.30;2.95;;;;;;;-3.93;78.48;146360.09;5061559;28;20483;-64
2023/02/13 02:53:44;;;;;;;4.72;2.85;;;;;;;-3.89;77.14;146368.94;5061594;28;20037;-64
2023/02/13 02:56:24;;;;;;;5.57;2.50;;;;;;;-3.94;76.52;146356.28;5061448;28;20036;-64
2023/02/13 03:07:25;;;;;;;5.32;2.55;;;;;;;-3.82;76.96;146386.66;5061178;28;20229;-65
2023/02/13 03:22:17;;;;;;;7.82;2.50;;;;;;;-3.85;77.48;146379.06;5055403;28;20064;-64
2023/02/13 03:24:15;;;;;;;6.25;2.60;;;;;;;-3.76;77.01;146401.91;5061492;28;20025;-65
2023/02/13 03:26:58;;;;;;;4.75;2.70;;;;;;;-3.92;77.41;146362.63;5060860;28;20051;-65
2023/02/13 03:30:10;;;;;;;5.40;2.50;;;;;;;-3.86;77.10;146376.56;5061481;28;20092;-67
2023/02/13 03:32:48;;;;;;;;;;;;;;;-3.93;79.32;146360.09;5059329;28;20033;-66
2023/02/13 03:38:13;;;;;;;5.18;2.20;;;;;;;-3.92;80.67;146362.63;5052447;28;20124;-65
2023/02/13 03:43:55;;;;;;;3.40;2.60;;;;;;;-4.00;80.93;146342.34;5064408;28;20055;-65
2023/02/13 03:46:23;;;;;;;3.97;2.20;;;;;;;-3.91;81.06;146365.13;5064187;28;20206;-66
2023/02/13 03:51:39;;;;;;;3.33;2.10;;;;;;;-3.77;81.09;146398.09;5064125;28;20066;-65
2023/02/13 03:54:15;;;;;;;8.77;2.72;;;;;;;-3.70;80.51;146417.09;5064107;28;20108;-65
2023/02/13 03:59:32;;;;;;;3.85;2.70;;;;;;;-3.78;80.85;146396.81;5063316;28;20313;-66
2023/02/13 04:02:07;;;;;;;4.63;2.30;;;;;;;-3.70;81.59;146415.84;5062973;28;20024;-63
2023/02/13 04:04:48;;;;;;;6.72;2.70;;;;;;;-3.66;81.35;146427.22;5064389;28;20032;-64
2023/02/13 04:07:28;;;;;;;4.78;2.33;;;;;;;-3.50;81.26;146465.25;5063683;28;20036;-65
2023/02/13 04:09:57;;;;;;;3.78;2.40;;;;;;;-3.61;81.07;146438.63;5064555;28;20068;-64
2023/02/13 04:12:34;;;;;;;4.13;2.50;;;;;;;-3.59;82.19;146442.44;5047198;28;20033;-66
2023/02/13 04:15:28;;;;;;;5.45;2.97;;;;;;;-3.55;81.39;146452.56;5059062;28;20075;-65
2023/02/13 04:18:18;;;;;;;7.25;3.42;;;;;;;-3.46;82.22;146475.41;5049862;28;20286;-64
2023/02/13 04:20:43;;;;;;;5.35;2.95;;;;;;;-3.41;80.80;146488.06;5054989;28;20084;-64
2023/02/13 04:23:11;;;;;;;3.38;2.63;;;;;;;-3.49;81.14;146469.06;5051653;28;20478;-64
2023/02/13 04:25:39;;;;;;;5.82;2.67;;;;;;;-3.59;80.78;146443.72;5061198;28;20266;-64
2023/02/13 04:28:05;;;;;;;5.35;2.80;;;;;;;-3.58;81.84;146446.22;5043827;28;20037;-64
2023/02/13 04:30:30;;;;;;;8.00;3.25;;;;;;;-3.44;81.69;146479.19;5062226;28;20317;-63
2023/02/13 04:32:56;;;;;;;4.72;2.72;;;;;;;-3.46;81.99;146475.41;5063701;28;20175;-67
2023/02/13 04:35:22;;;;;;;4.07;2.60;;;;;;;-3.46;82.04;146475.41;5062616;28;20040;-64
2023/02/13 04:37:47;;;;;;;4.75;2.33;;;;;;;-3.42;82.04;146485.56;5063099;28;20099;-66
2023/02/13 04:40:13;;;;;;;5.90;2.80;;;;;;;-3.39;82.27;146491.84;5063674;28;20292;-65
2023/02/13 04:42:39;;;;;;;4.53;2.40;;;;;;;-3.42;81.94;146484.25;5043564;28;20048;-65
2023/02/13 04:45:04;;;;;;;7.40;2.40;;;;;;;-3.46;82.82;146475.41;5043415;28;20045;-66
2023/02/13 04:47:30;;;;;;;3.65;2.15;;;;;;;-3.41;82.55;146488.06;5053630;28;20029;-65
2023/02/13 04:49:56;;;;;;;3.85;2.50;;;;;;;-3.42;82.88;146485.56;5063387;28;20067;-63
2023/02/13 04:52:21;;;;;;;7.45;2.58;;;;;;;-3.43;82.60;146483.00;5061568;28;20028;-66
2023/02/13 04:54:47;;;;;;;5.80;2.40;;;;;;;-3.30;82.94;146515.94;5063431;28;20032;-63
2023/02/13 04:57:12;;;;;;;5.18;2.28;;;;;;;-3.25;82.39;146526.09;5062847;28;20025;-64
2023/02/13 04:59:38;;;;;;;3.72;2.28;;;;;;;-3.31;82.17;146512.13;5062908;28;20032;-65
2023/02/13 05:02:04;;;;;;;5.38;2.47;;;;;;;-3.22;82.64;146534.97;5062407;28;20028;-63
2023/02/13 05:04:29;;;;;;;3.25;2.17;;;;;;;-3.17;82.95;146547.63;5061549;28;20028;-65
2023/02/13 05:06:55;;;;;;;3.10;2.08;;;;;;;-3.27;83.24;146522.28;5050746;28;20036;-65
2023/02/13 05:09:20;;;;;;;3.03;1.90;;;;;;;-3.28;83.17;146518.50;5058867;28;20071;-65
2023/02/13 05:11:46;;;;;;;2.83;1.83;;;;;;;-3.23;83.48;146532.44;5052011;28;20033;-65
2023/02/13 05:14:12;;;;;;;3.20;1.55;;;;;;;-3.18;82.64;146545.13;5050616;28;20225;-66
2023/02/13 05:16:37;;;;;;;2.47;1.75;;;;;;;-3.21;82.99;146537.47;5056356;28;20047;-66
2023/02/13 05:19:03;;;;;;;3.28;1.75;;;;;;;-3.15;82.16;146552.72;5061566;28;20020;-66
2023/02/13 05:24:13;;;;;;;3.60;2.10;;;;;;;-3.01;82.96;146585.69;5062854;28;20603;-65
2023/02/13 05:26:38;;;;;;;6.20;2.00;;;;;;;-3.03;82.36;146581.88;5052364;28;20033;-64
2023/02/13 05:29:19;;;;;;;3.45;1.95;;;;;;;-3.14;82.65;146553.97;5049103;28;20032;-64
2023/02/13 05:31:46;;;;;;;3.55;2.08;;;;;;;-3.17;82.91;146546.38;5054882;28;20064;-65
2023/02/13 05:34:12;;;;;;;4.43;2.30;;;;;;;-3.02;82.93;146584.44;5061035;28;20027;-66
2023/02/13 05:36:38;;;;;;;2.75;1.90;;;;;;;-2.99;82.77;146592.03;5053848;28;20025;-65
2023/02/13 05:39:05;;;;;;;4.03;1.95;;;;;;;-2.84;82.38;146627.53;5056486;28;20020;-64
2023/02/13 05:41:30;;;;;;;6.85;1.92;;;;;;;-3.07;82.59;146570.47;5053133;28;20025;-64
2023/02/13 05:43:56;;;;;;;3.70;1.90;;;;;;;-3.02;82.54;146583.13;5047107;28;20206;-65
2023/02/13 05:46:21;;;;;;;4.97;2.05;;;;;;;-2.96;82.48;146598.38;5055541;28;20033;-66
2023/02/13 05:48:47;;;;;;;4.22;1.80;;;;;;;-2.92;82.23;146607.22;5052274;28;20032;-64
2023/02/13 05:51:13;;;;;;;3.92;1.80;;;;;;;-2.85;81.89;146626.28;5057572;28;20045;-65
2023/02/13 05:53:38;;;;;;;3.60;2.28;;;;;;;-2.89;81.94;146614.81;5061808;28;20032;-65
2023/02/13 05:56:05;;;;;;;4.00;1.90;;;;;;;-2.77;81.76;146645.28;5061672;28;20105;-64
2023/02/13 05:58:31;;;;;;;4.47;2.03;;;;;;;-2.74;80.96;146652.88;5062096;28;20048;-65
2023/02/13 06:00:58;;;;;;;3.13;2.10;;;;;;;-2.73;81.63;146655.44;5057858;28;20029;-66
2023/02/13 06:03:25;;;;;;;5.15;2.55;;;;;;;-2.82;81.31;146632.56;5059025;28;20297;-65
2023/02/13 06:05:52;;;;;;;4.35;2.30;;;;;;;-2.97;80.54;146595.81;5061439;28;20357;-65
2023/02/13 06:08:18;;;;;;;3.92;2.25;;;;;;;-2.95;81.77;146602.19;5061334;28;20016;-64
2023/02/13 06:10:45;;;;;;;5.10;2.63;;;;;;;-2.96;81.04;146598.38;5061251;28;20067;-66
2023/02/13 06:13:11;;;;;;;4.55;2.58;;;;;;;-2.92;81.17;146608.53;5061029;28;20032;-64
2023/02/13 06:15:37;;;;;;;7.55;2.70;;;;;;;-2.71;81.45;146659.22;5060312;28;20247;-65
2023/02/13 06:18:02;;;;;;;6.55;2.38;;;;;;;-2.79;80.89;146640.22;5055596;28;20021;-65
2023/02/13 06:20:28;;;;;;;4.53;2.20;;;;;;;-2.84;81.32;146628.78;5056565;28;20029;-65
2023/02/13 06:22:54;;;;;;;3.85;2.50;;;;;;;-2.80;81.52;146637.69;5060854;28;20102;-66
2023/02/13 06:25:20;;;;;;;5.78;2.55;;;;;;;-2.71;81.60;146659.22;5061653;28;20236;-66
2023/02/13 06:27:46;;;;;;;5.25;2.53;;;;;;;-2.73;80.72;146655.44;5060181;28;20040;-65
2023/02/13 06:30:12;;;;;;;5.82;2.22;;;;;;;-2.68;80.98;146668.13;5061368;28;20040;-67
2023/02/13 06:32:38;;;;;;;5.28;2.55;;;;;;;-2.64;81.11;146678.28;5061413;28;20033;-65
2023/02/13 06:35:04;;;;;;;5.47;2.70;;;;;;;-2.64;81.36;146676.97;5059971;28;20071;-64
2023/02/13 06:37:29;;;;;;;5.85;2.33;;;;;;;-2.71;81.29;146660.47;5061074;28;20028;-64
2023/02/13 06:39:55;;;;;;;11.27;3.08;;;;;;;-2.53;81.43;146704.91;5061423;28;20039;-65
2023/02/13 06:42:20;;;;;;;5.50;2.42;;;;;;;-2.53;79.86;146704.91;5061345;28;20036;-65
2023/02/13 06:44:46;;;;;;;3.95;2.63;;;;;;;-2.49;80.47;146715.03;5061123;28;20358;-65
2023/02/13 06:47:12;;;;;;;4.57;2.42;;;;;;;-2.43;80.56;146730.25;5060931;28;20037;-65
2023/02/13 06:49:37;;;;;;;7.53;2.83;;;;;;;-2.42;81.11;146731.56;5059625;28;20115;-65
2023/02/13 06:52:03;;;;;;;3.28;2.30;;;;;;;-2.51;79.95;146708.69;5061117;28;20088;-65
2023/02/13 06:54:29;;;;;;;4.45;2.10;;;;;;;-2.44;80.12;146727.75;5060976;28;20025;-65
2023/02/13 06:56:54;;;;;;;4.07;2.78;;;;;;;-2.44;81.07;146726.44;5058770;28;20302;-65
2023/02/13 06:59:20;;;;;;;4.35;2.50;;;;;;;-2.53;80.62;146703.63;5060169;28;20025;-64
2023/02/13 07:01:45;;;;;;;6.68;2.28;;;;;;;-2.43;80.67;146729.00;5061092;28;20047;-65
2023/02/13 07:04:11;;;;;;;4.45;2.47;;;;;;;-2.33;80.88;146754.38;5061253;28;20048;-65
2023/02/13 07:06:36;;;;;;;6.60;2.70;;;;;;;-2.38;79.66;146741.72;5060694;28;20071;-67
2023/02/13 07:09:03;;;;;;;5.82;2.88;;;;;;;-2.55;80.37;146698.53;5063295;28;20033;-67
2023/02/13 07:11:29;;;;;;;7.20;2.67;;;;;;;-2.40;80.50;146736.59;5064950;28;20099;-65
2023/02/13 07:13:54;;;;;;;7.30;2.67;;;;;;;-2.32;80.41;146756.91;5065120;28;20179;-64
2023/02/13 07:16:20;;;;;;;4.97;2.72;;;;;;;-2.45;80.69;146725.19;5064992;28;20024;-65
2023/02/13 07:18:45;;;;;;;8.88;2.65;;;;;;;-2.30;80.96;146761.97;5065057;28;20024;-65
2023/02/13 07:21:11;;;;;;;8.32;3.10;;;;;;;-2.25;81.38;146773.44;5064850;28;20178;-66
2023/02/13 07:23:36;;;;;;;7.57;3.40;;;;;;;-2.35;81.41;146748.00;5062686;28;20021;-65
2023/02/13 07:26:03;;;;;;;5.47;2.97;;;;;;;-2.22;82.36;146779.72;5056586;28;20071;-64
2023/02/13 07:28:29;;;;;;;5.28;2.67;;;;;;;-2.16;81.33;146795.00;5062922;28;20194;-64
2023/02/13 07:30:54;;;;;;;7.38;2.80;;;;;;;-2.43;81.91;146730.25;5064087;28;20062;-64
2023/02/13 07:33:20;;;;;;;9.27;3.25;;;;;;;-2.09;81.65;146812.75;5064421;28;20021;-65
2023/02/13 07:35:47;;;;;;;7.88;2.83;;;;;;;-1.91;81.21;146858.44;5063227;28;20131;-65
2023/02/13 07:38:13;;;;;;;7.20;3.08;;;;;;;-1.97;80.03;146841.94;5064277;28;20436;-65
2023/02/13 07:40:39;;;;;;;11.25;3.65;;;;;;;-1.81;81.31;146881.25;5063695;28;20109;-64
2023/02/13 07:43:04;;;;;;;5.18;2.80;;;;;;;-1.80;80.70;146885.06;5061598;28;20254;-64
2023/02/13 07:45:30;;;;;;;5.75;2.90;;;;;;;-1.85;79.54;146871.09;5064086;28;20041;-65
2023/02/13 07:47:56;;;;;;;7.63;2.90;;;;;;;-1.99;80.85;146836.88;5064356;28;20139;-65
2023/02/13 07:50:22;;;;;;;6.55;2.70;;;;;;;-1.91;80.90;146858.44;5064224;28;20031;-64
2023/02/13 07:52:58;;;;;;;6.45;2.97;;;;;;;-1.92;80.85;146854.63;5063742;28;20092;-65
2023/02/13 07:55:24;;;;;;;5.93;3.33;;;;;;;-1.86;81.14;146868.59;5060998;28;20024;-65
2023/02/13 07:57:50;;;;;;;7.10;3.30;;;;;;;-1.77;80.59;146891.41;5063939;28;20084;-65
2023/02/13 08:00:16;;;;;;;7.13;3.60;;;;;;;-1.76;81.38;146893.97;5063805;28;20040;-65
2023/02/13 08:02:42;;;;;;;5.88;3.25;;;;;;;-1.76;80.38;146893.97;5063849;28;20025;-65
2023/02/13 08:05:08;;;;;;;8.73;3.38;;;;;;;-1.56;81.16;146944.72;5063661;28;20096;-65
2023/02/13 08:07:34;;;;;;;6.82;2.90;;;;;;;-1.53;81.82;146949.84;5063875;28;20247;-65
2023/02/13 08:12:44;;;;;;;6.72;3.15;;;;;;;-1.59;80.78;146937.13;5060651;28;20048;-64
2023/02/13 08:15:12;;;;;;;8.90;3.50;;;;;;;-1.57;80.28;146940.94;5063605;28;20159;-65
2023/02/13 08:17:37;;;;;;;9.93;3.70;;;;;;;-1.63;80.80;146925.72;5063753;28;20025;-66
2023/02/13 08:20:06;;;;;;;8.68;3.75;;;;;;;-1.48;80.79;146962.50;5062631;28;20036;-65
2023/02/13 08:22:32;;;;;;;9.55;3.92;;;;;;;-1.49;79.68;146960.00;5064044;28;20021;-66
2023/02/13 08:24:57;;;;;;;14.13;3.90;;;;;;;-1.38;80.71;146987.94;5063450;28;20111;-66
2023/02/13 08:27:23;;;;;;;8.68;3.60;;;;;;;-1.38;80.03;146987.94;5063331;28;20019;-66
2023/02/13 08:29:50;;;;;;;10.43;3.83;;;;;;;-1.42;80.42;146977.78;5063685;28;20092;-66
2023/02/13 08:32:15;;;;;;;6.40;3.78;;;;;;;-1.48;81.31;146962.50;5063327;28;20024;-66
2023/02/13 08:34:41;;;;;;;6.90;3.78;;;;;;;-1.42;81.09;146977.78;5063516;28;20059;-66
2023/02/13 08:37:07;;;;;;;7.25;3.85;;;;;;;-1.37;81.18;146990.44;5063699;28;20186;-66
2023/02/13 08:39:32;;;;;;;7.75;3.70;;;;;;;-1.38;81.63;146987.94;5063690;28;20060;-66
2023/02/13 08:41:58;;;;;;;7.43;3.40;;;;;;;-1.57;81.08;146942.22;5063540;28;20036;-66
2023/02/13 08:44:23;;;;;;;7.88;3.55;;;;;;;-1.48;82.14;146963.81;5063456;28;20317;-66
2023/02/13 08:46:49;;;;;;;6.88;3.67;;;;;;;-1.48;82.30;146962.50;5052310;28;20041;-66
2023/02/13 08:49:15;;;;;;;12.82;4.50;;;;;;;-1.39;82.44;146986.63;5063488;28;20021;-65
2023/02/13 08:51:40;;;;;;;5.70;3.50;;;;;;;-1.25;82.83;147020.94;5063459;28;20446;-65
2023/02/13 08:54:06;;;;;;;10.55;4.32;;;;;;;-1.18;81.16;147036.16;5062704;28;20021;-66
2023/02/13 08:56:31;;;;;;;7.15;4.40;;;;;;;-1.20;82.46;147031.09;5062748;28;20024;-66
2023/02/13 08:58:57;;;;;;;7.07;3.95;;;;;;;-1.06;81.87;147066.66;5063035;28;20052;-66
2023/02/13 09:01:22;;;;;;;10.88;4.00;;;;;;;-0.96;82.48;147092.06;5062941;28;20453;-66
2023/02/13 09:03:49;;;;;;;7.68;4.43;;;;;;;-1.12;81.48;147051.44;5062968;28;20049;-64
2023/02/13 09:06:14;;;;;;;7.60;3.67;;;;;;;-1.06;81.89;147066.66;5062447;28;20024;-63
2023/02/13 09:08:40;;;;;;;11.65;4.90;;;;;;;-1.15;83.01;147045.06;5061809;28;20070;-66
2023/02/13 09:11:06;;;;;;;5.93;3.25;;;;;;;-1.07;82.64;147064.09;5062869;28;20041;-65
2023/02/13 09:13:33;;;;;;;10.02;4.18;;;;;;;-1.10;83.34;147056.50;5062846;28;20066;-66
2023/02/13 09:16:06;;;;;;;8.00;3.85;;;;;;;-1.10;83.00;147057.78;5060324;28;20203;-66
2023/02/13 09:18:33;;;;;;;12.35;4.68;;;;;;;-1.00;84.18;147081.88;5060237;28;20024;-66
2023/02/13 09:21:07;;;;;;;9.30;4.25;;;;;;;-0.91;83.56;147103.53;5062409;28;20017;-65
2023/02/13 09:23:36;;;;;;;10.30;4.22;;;;;;;-0.83;83.71;147122.56;5060365;28;20033;-66
2023/02/13 09:26:03;;;;;;;6.47;4.18;;;;;;;-0.98;83.30;147087.00;5061069;28;20051;-66
2023/02/13 09:28:30;;;;;;;7.28;4.18;;;;;;;-0.99;84.62;147084.44;5058811;28;20036;-66
2023/02/13 09:30:56;;;;;;;8.48;3.88;;;;;;;-0.92;84.14;147102.22;5061964;28;20029;-66
2023/02/13 09:33:22;;;;;;;8.23;3.83;;;;;;;-0.77;84.19;147139.09;5061995;28;20063;-66
2023/02/13 09:35:47;;;;;;;7.10;3.90;;;;;;;-0.72;83.47;147150.50;5060704;28;20189;-66
2023/02/13 09:38:13;;;;;;;10.93;4.57;;;;;;;-0.94;84.56;147097.16;5060866;28;20203;-65
2023/02/13 09:40:55;;;;;;;8.05;4.80;;;;;;;-0.84;85.34;147120.00;5061209;28;20100;-65
2023/02/13 09:43:33;;;;;;;9.27;4.95;;;;;;;-0.81;84.14;147128.91;5060202;28;20033;-65
2023/02/13 09:46:11;;;;;;;10.45;4.60;;;;;;;-0.81;84.80;147128.91;5059566;28;20072;-65
2023/02/13 09:48:39;;;;;;;8.50;4.55;;;;;;;-0.56;84.50;147191.13;5060586;28;20040;-66
2023/02/13 09:51:05;;;;;;;9.32;4.80;;;;;;;-0.41;84.59;147226.78;5061949;28;20382;-66
2023/02/13 09:53:32;;;;;;;9.07;4.45;;;;;;;-0.44;84.28;147219.09;5061946;28;20029;-66
2023/02/13 09:56:15;;;;;;;10.93;3.90;;;;;;;-0.77;85.03;147139.09;5061803;28;20032;-65
2023/02/13 09:58:53;;;;;;;9.65;4.60;;;;;;;-0.56;84.15;147191.13;5059307;28;20045;-65
2023/02/13 10:01:39;;;;;;;7.22;4.38;;;;;;;-0.47;83.97;147211.47;5060826;28;20032;-65
2023/02/13 10:04:30;;;;;;;9.35;4.45;;;;;;;-0.40;84.67;147230.56;5061518;28;20021;-65
2023/02/13 10:07:08;;;;;;;7.15;4.55;;;;;;;-0.26;84.11;147264.84;5061032;28;20025;-65
2023/02/13 10:09:39;;;;;;;7.00;4.22;;;;;;;-0.26;84.83;147264.84;5059012;28;20143;-66
2023/02/13 10:12:24;;;;;;;7.70;4.68;;;;;;;-0.37;84.18;147236.88;5061565;28;20024;-65
2023/02/13 10:15:11;;;;;;;9.48;4.05;;;;;;;-0.26;84.75;147264.84;5061454;28;20029;-67
2023/02/13 10:17:43;;;;;;;9.38;4.80;;;;;;;-0.09;84.62;147305.56;5060924;28;20102;-68
2023/02/13 10:20:38;;;;;;;7.40;4.80;;;;;;;-0.18;84.59;147283.94;5061069;28;20032;-67
2023/02/13 10:23:18;;;;;;;8.73;4.57;;;;;;;-0.15;84.71;147290.31;5059476;28;20091;-65
2023/02/13 10:26:05;;;;;;;9.63;5.03;;;;;;;-0.04;83.82;147318.28;5059486;28;20043;-68
2023/02/13 10:28:43;;;;;;;11.10;5.90;;;;;;;-0.19;84.73;147281.41;5057523;28;20116;-68
2023/02/13 10:31:14;;;;;;;9.65;4.53;;;;;;;-0.26;84.38;147264.84;5059690;28;20099;-65
2023/02/13 10:33:48;;;;;;;9.05;4.85;;;;;;;-0.14;84.06;147292.81;5058940;28;20025;-66
2023/02/13 10:36:38;;;;;;;7.72;5.28;;;;;;;0.04;83.68;147337.34;5059515;28;20478;-66
2023/02/13 10:39:03;;;;;;;12.25;5.30;;;;;;;-0.02;84.17;147323.34;5053720;28;20124;-67
2023/02/13 10:41:50;;;;;;;9.20;4.90;;;;;;;0.07;83.69;147346.25;5061610;28;20037;-65
2023/02/13 10:44:28;;;;;;;8.60;5.43;;;;;;;0.07;84.25;147346.25;5063873;28;20115;-65
2023/02/13 10:46:59;;;;;;;11.10;5.05;;;;;;;0.12;83.52;147358.94;5065325;28;20244;-66
2023/02/13 10:49:37;;;;;;;8.80;4.60;;;;;;;0.17;84.06;147371.69;5065307;28;20119;-66
2023/02/13 10:52:34;;;;;;;7.90;5.05;;;;;;;0.10;84.22;147352.56;5064870;28;20029;-66
2023/02/13 10:55:11;;;;;;;10.02;5.57;;;;;;;0.25;83.84;147389.47;5065733;28;20029;-65
2023/02/13 10:58:14;;;;;;;8.23;4.88;;;;;;;0.19;83.69;147375.47;5065695;28;20029;-66
2023/02/13 11:00:51;;;;;;;12.82;5.25;;;;;;;0.40;84.25;147427.63;5064912;28;20333;-66
2023/02/13 11:03:20;;;;;;;9.18;5.22;;;;;;;0.39;83.85;147423.81;5062573;28;20041;-67
2023/02/13 11:05:48;;;;;;;11.60;5.05;;;;;;;0.24;84.15;147386.91;5065084;28;20337;-66
2023/02/13 11:08:29;;;;;;;9.13;4.70;;;;;;;0.50;83.82;147453.06;5061836;28;20025;-68
2023/02/13 11:10:55;;;;;;;10.93;4.90;;;;;;;0.40;83.35;147427.63;5062435;28;20179;-66
2023/02/13 11:13:23;;;;;;;11.45;6.07;;;;;;;0.47;83.84;147445.44;5064660;28;20025;-67
2023/02/13 11:16:00;;;;;;;9.43;5.15;;;;;;;0.66;83.80;147491.22;5064765;28;20060;-66
2023/02/13 11:18:28;;;;;;;11.43;4.82;;;;;;;0.67;83.57;147493.75;5062873;28;20033;-67
2023/02/13 11:21:03;;;;;;;10.20;5.43;;;;;;;0.65;83.20;147488.69;5064522;28;20024;-67
2023/02/13 11:23:29;;;;;;;10.43;5.50;;;;;;;0.68;83.47;147496.28;5064762;28;20056;-67
2023/02/13 11:26:08;;;;;;;8.00;5.28;;;;;;;0.49;83.05;147449.25;5051595;28;20033;-67
2023/02/13 11:28:52;;;;;;;11.00;5.20;;;;;;;0.51;84.17;147455.63;5061887;28;20119;-66
2023/02/13 11:31:28;;;;;;;14.00;5.82;;;;;;;0.51;83.84;147455.63;5054730;28;20057;-67
2023/02/13 11:33:54;;;;;;;9.80;5.43;;;;;;;0.61;84.20;147478.50;5064911;28;20028;-67
2023/02/13 11:36:29;;;;;;;8.65;5.05;;;;;;;0.45;84.34;147440.31;5063147;28;20029;-67
2023/02/13 11:39:16;;;;;;;10.77;5.63;;;;;;;0.41;85.90;147430.16;5063986;28;20024;-66
2023/02/13 11:41:43;;;;;;;12.73;5.70;;;;;;;0.61;86.17;147478.50;5063930;28;20217;-67
2023/02/13 11:44:31;;;;;;;8.25;5.10;;;;;;;0.60;87.38;147477.25;5062342;28;20112;-68
2023/02/13 11:46:59;;;;;;;10.90;5.65;;;;;;;0.61;87.34;147479.75;5063884;28;20073;-66
2023/02/13 11:49:33;;;;;;;12.07;5.38;;;;;;;0.72;86.23;147505.22;5044687;28;20033;-67
2023/02/13 11:52:02;;;;;;;7.68;5.50;;;;;;;0.49;86.77;147450.50;5063555;28;20032;-68
2023/02/13 11:54:33;;;;;;;9.57;5.20;;;;;;;0.47;87.05;147445.44;5064077;28;20040;-68
2023/02/13 11:56:59;;;;;;;13.00;6.00;;;;;;;0.56;87.09;147465.81;5064568;28;20029;-66
2023/02/13 11:59:29;;;;;;;10.73;5.30;;;;;;;0.47;86.56;147445.44;5064203;28;20060;-66
2023/02/13 12:02:15;;;;;;;11.63;5.38;;;;;;;0.72;86.00;147506.47;5064607;28;20036;-67
2023/02/13 12:04:41;;;;;;;9.73;5.00;;;;;;;0.81;85.66;147529.41;5064264;28;20040;-67
2023/02/13 12:07:13;;;;;;;9.32;5.13;;;;;;;0.92;86.07;147554.84;5064269;28;20054;-67
2023/02/13 12:09:39;;;;;;;;;;;;;;;0.94;86.35;147559.91;5064337;28;20116;-66
2023/02/13 12:12:05;;;;;;;9.75;4.68;;;;;;;0.79;85.91;147524.28;5063984;28;19954;-67
2023/02/13 12:14:43;;;;;;;11.55;5.00;;;;;;;0.84;85.78;147535.72;5062347;28;20021;-69
2023/02/13 12:17:35;;;;;;;9.30;4.93;;;;;;;0.88;86.53;147544.66;5061480;28;20021;-65
2023/02/13 12:20:00;;;;;;;;;;;;;;;0.94;86.27;147561.22;5063298;28;20045;-68
2023/02/13 12:22:50;;;;;;;12.10;5.03;;;;;;;0.91;86.31;147553.53;5063090;28;19919;-67